sensor_id;sensor_type;location;lat;lon;timestamp;P1;durP1;ratioP1;P2;durP2;ratioP2
66721;SDS011;53633;49.932;10.884;2022-09-17T00:01:05;3.78;;;1.10;;
66721;SDS011;53633;49.932;10.884;2022-09-17T00:03:32;6.15;;;1.35;;
66721;SDS011;53633;49.932;10.884;2022-09-17T00:05:59;4.18;;;1.17;;
66721;SDS011;53633;49.932;10.884;2022-09-17T00:08:27;7.32;;;1.15;;
66721;SDS011;53633;49.932;10.884;2022-09-17T00:10:53;5.07;;;1.47;;
66721;SDS011;53633;49.932;10.884;2022-09-17T00:13:20;5.53;;;1.30;;
66721;SDS011;53633;49.932;10.884;2022-09-17T00:15:48;6.75;;;1.15;;
66721;SDS011;53633;49.932;10.884;2022-09-17T00:18:15;6.28;;;1.40;;
66721;SDS011;53633;49.932;10.884;2022-09-17T00:20:43;6.85;;;1.83;;
66721;SDS011;53633;49.932;10.884;2022-09-17T00:23:11;5.17;;;1.60;;
66721;SDS011;53633;49.932;10.884;2022-09-17T00:25:38;4.78;;;1.38;;
66721;SDS011;53633;49.932;10.884;2022-09-17T00:28:05;6.30;;;1.60;;
66721;SDS011;53633;49.932;10.884;2022-09-17T00:30:33;3.72;;;1.08;;
66721;SDS011;53633;49.932;10.884;2022-09-17T00:33:01;7.40;;;1.50;;
66721;SDS011;53633;49.932;10.884;2022-09-17T00:35:27;5.97;;;1.50;;
66721;SDS011;53633;49.932;10.884;2022-09-17T00:37:54;5.22;;;1.60;;
66721;SDS011;53633;49.932;10.884;2022-09-17T00:40:21;6.78;;;1.90;;
66721;SDS011;53633;49.932;10.884;2022-09-17T00:42:51;6.00;;;1.67;;
66721;SDS011;53633;49.932;10.884;2022-09-17T00:45:18;6.13;;;2.00;;
66721;SDS011;53633;49.932;10.884;2022-09-17T00:47:46;6.97;;;2.03;;
66721;SDS011;53633;49.932;10.884;2022-09-17T00:50:20;7.25;;;1.95;;
66721;SDS011;53633;49.932;10.884;2022-09-17T00:52:50;5.47;;;1.80;;
66721;SDS011;53633;49.932;10.884;2022-09-17T00:55:22;9.65;;;2.05;;
66721;SDS011;53633;49.932;10.884;2022-09-17T00:57:51;6.18;;;2.47;;
66721;SDS011;53633;49.932;10.884;2022-09-17T01:00:20;7.93;;;2.20;;
66721;SDS011;53633;49.932;10.884;2022-09-17T01:02:47;8.65;;;2.13;;
66721;SDS011;53633;49.932;10.884;2022-09-17T01:05:14;7.55;;;2.40;;
66721;SDS011;53633;49.932;10.884;2022-09-17T01:07:53;9.85;;;2.83;;
66721;SDS011;53633;49.932;10.884;2022-09-17T01:13:35;9.73;;;2.33;;
66721;SDS011;53633;49.932;10.884;2022-09-17T01:16:08;8.77;;;2.40;;
66721;SDS011;53633;49.932;10.884;2022-09-17T01:18:44;8.35;;;2.42;;
66721;SDS011;53633;49.932;10.884;2022-09-17T01:27:15;8.17;;;2.40;;
66721;SDS011;53633;49.932;10.884;2022-09-17T01:30:01;8.70;;;3.05;;
66721;SDS011;53633;49.932;10.884;2022-09-17T01:32:41;8.35;;;2.70;;
66721;SDS011;53633;49.932;10.884;2022-09-17T01:35:13;8.43;;;2.83;;
66721;SDS011;53633;49.932;10.884;2022-09-17T01:37:46;9.68;;;3.17;;
66721;SDS011;53633;49.932;10.884;2022-09-17T01:40:20;9.07;;;3.13;;
66721;SDS011;53633;49.932;10.884;2022-09-17T01:42:52;10.40;;;3.42;;
66721;SDS011;53633;49.932;10.884;2022-09-17T01:45:25;9.45;;;3.15;;
66721;SDS011;53633;49.932;10.884;2022-09-17T01:47:59;8.57;;;2.97;;
66721;SDS011;53633;49.932;10.884;2022-09-17T01:50:29;10.50;;;2.92;;
66721;SDS011;53633;49.932;10.884;2022-09-17T01:52:59;8.73;;;2.83;;
66721;SDS011;53633;49.932;10.884;2022-09-17T01:55:29;11.75;;;3.10;;
66721;SDS011;53633;49.932;10.884;2022-09-17T01:57:59;8.40;;;2.92;;
66721;SDS011;53633;49.932;10.884;2022-09-17T02:00:29;10.30;;;3.00;;
66721;SDS011;53633;49.932;10.884;2022-09-17T02:02:58;10.57;;;3.15;;
66721;SDS011;53633;49.932;10.884;2022-09-17T02:05:29;9.33;;;3.20;;
66721;SDS011;53633;49.932;10.884;2022-09-17T02:08:02;8.90;;;3.13;;
66721;SDS011;53633;49.932;10.884;2022-09-17T02:10:32;10.30;;;3.17;;
66721;SDS011;53633;49.932;10.884;2022-09-17T02:13:02;10.55;;;3.33;;
66721;SDS011;53633;49.932;10.884;2022-09-17T02:15:33;9.55;;;3.45;;
66721;SDS011;53633;49.932;10.884;2022-09-17T02:18:06;8.63;;;3.00;;
66721;SDS011;53633;49.932;10.884;2022-09-17T02:20:41;6.70;;;2.47;;
66721;SDS011;53633;49.932;10.884;2022-09-17T02:23:11;8.40;;;2.58;;
66721;SDS011;53633;49.932;10.884;2022-09-17T02:25:43;9.57;;;2.78;;
66721;SDS011;53633;49.932;10.884;2022-09-17T02:28:16;8.48;;;2.92;;
66721;SDS011;53633;49.932;10.884;2022-09-17T02:30:47;8.97;;;3.43;;
66721;SDS011;53633;49.932;10.884;2022-09-17T02:33:15;11.88;;;2.85;;
66721;SDS011;53633;49.932;10.884;2022-09-17T02:35:44;9.63;;;2.58;;
66721;SDS011;53633;49.932;10.884;2022-09-17T02:38:12;7.72;;;2.90;;
66721;SDS011;53633;49.932;10.884;2022-09-17T02:40:40;6.78;;;2.70;;
66721;SDS011;53633;49.932;10.884;2022-09-17T02:43:13;11.93;;;3.07;;
66721;SDS011;53633;49.932;10.884;2022-09-17T02:45:48;10.18;;;3.08;;
66721;SDS011;53633;49.932;10.884;2022-09-17T02:48:26;7.40;;;3.00;;
66721;SDS011;53633;49.932;10.884;2022-09-17T02:51:19;12.13;;;3.08;;
66721;SDS011;53633;49.932;10.884;2022-09-17T02:53:53;8.45;;;3.03;;
66721;SDS011;53633;49.932;10.884;2022-09-17T02:56:28;8.23;;;2.67;;
66721;SDS011;53633;49.932;10.884;2022-09-17T02:59:01;9.00;;;2.90;;
66721;SDS011;53633;49.932;10.884;2022-09-17T03:01:37;8.95;;;2.85;;
66721;SDS011;53633;49.932;10.884;2022-09-17T03:04:11;9.32;;;3.28;;
66721;SDS011;53633;49.932;10.884;2022-09-17T03:06:42;9.05;;;3.10;;
66721;SDS011;53633;49.932;10.884;2022-09-17T03:09:11;8.47;;;2.50;;
66721;SDS011;53633;49.932;10.884;2022-09-17T03:11:38;8.35;;;2.92;;
66721;SDS011;53633;49.932;10.884;2022-09-17T03:14:05;8.00;;;2.90;;
66721;SDS011;53633;49.932;10.884;2022-09-17T03:16:32;9.75;;;2.60;;
66721;SDS011;53633;49.932;10.884;2022-09-17T03:18:59;8.57;;;2.45;;
66721;SDS011;53633;49.932;10.884;2022-09-17T03:21:27;7.17;;;2.47;;
66721;SDS011;53633;49.932;10.884;2022-09-17T03:23:53;7.50;;;2.15;;
66721;SDS011;53633;49.932;10.884;2022-09-17T03:26:20;7.45;;;1.98;;
66721;SDS011;53633;49.932;10.884;2022-09-17T03:28:46;7.00;;;2.28;;
66721;SDS011;53633;49.932;10.884;2022-09-17T03:31:13;7.30;;;2.33;;
66721;SDS011;53633;49.932;10.884;2022-09-17T03:33:39;8.90;;;2.30;;
66721;SDS011;53633;49.932;10.884;2022-09-17T03:36:06;8.80;;;2.03;;
66721;SDS011;53633;49.932;10.884;2022-09-17T03:38:34;7.82;;;2.20;;
66721;SDS011;53633;49.932;10.884;2022-09-17T03:41:02;8.82;;;2.60;;
66721;SDS011;53633;49.932;10.884;2022-09-17T03:43:30;10.48;;;3.25;;
66721;SDS011;53633;49.932;10.884;2022-09-17T03:45:57;10.50;;;2.63;;
66721;SDS011;53633;49.932;10.884;2022-09-17T03:48:23;9.93;;;2.22;;
66721;SDS011;53633;49.932;10.884;2022-09-17T03:50:50;7.90;;;2.20;;
66721;SDS011;53633;49.932;10.884;2022-09-17T03:53:17;6.57;;;2.33;;
66721;SDS011;53633;49.932;10.884;2022-09-17T03:55:45;7.70;;;2.30;;
66721;SDS011;53633;49.932;10.884;2022-09-17T03:58:11;7.97;;;2.87;;
66721;SDS011;53633;49.932;10.884;2022-09-17T04:00:38;9.52;;;2.63;;
66721;SDS011;53633;49.932;10.884;2022-09-17T04:03:04;7.88;;;2.70;;
66721;SDS011;53633;49.932;10.884;2022-09-17T04:05:31;9.30;;;3.45;;
66721;SDS011;53633;49.932;10.884;2022-09-17T04:07:58;6.78;;;2.22;;
66721;SDS011;53633;49.932;10.884;2022-09-17T04:10:24;7.73;;;2.73;;
66721;SDS011;53633;49.932;10.884;2022-09-17T04:12:52;8.18;;;2.50;;
66721;SDS011;53633;49.932;10.884;2022-09-17T04:15:19;8.52;;;2.72;;
66721;SDS011;53633;49.932;10.884;2022-09-17T04:17:45;6.97;;;2.22;;
66721;SDS011;53633;49.932;10.884;2022-09-17T04:20:12;9.00;;;2.30;;
66721;SDS011;53633;49.932;10.884;2022-09-17T04:22:39;9.87;;;3.10;;
66721;SDS011;53633;49.932;10.884;2022-09-17T04:25:05;7.15;;;2.53;;
66721;SDS011;53633;49.932;10.884;2022-09-17T04:27:32;9.70;;;3.67;;
66721;SDS011;53633;49.932;10.884;2022-09-17T04:30:00;9.35;;;2.90;;
66721;SDS011;53633;49.932;10.884;2022-09-17T04:32:27;11.32;;;2.60;;
66721;SDS011;53633;49.932;10.884;2022-09-17T04:34:53;7.83;;;2.70;;
66721;SDS011;53633;49.932;10.884;2022-09-17T04:37:20;9.43;;;2.47;;
66721;SDS011;53633;49.932;10.884;2022-09-17T04:39:47;7.68;;;2.38;;
66721;SDS011;53633;49.932;10.884;2022-09-17T04:42:14;7.38;;;2.42;;
66721;SDS011;53633;49.932;10.884;2022-09-17T04:44:41;8.20;;;2.00;;
66721;SDS011;53633;49.932;10.884;2022-09-17T04:47:09;7.90;;;2.07;;
66721;SDS011;53633;49.932;10.884;2022-09-17T04:49:35;6.15;;;1.95;;
66721;SDS011;53633;49.932;10.884;2022-09-17T04:52:02;9.25;;;2.22;;
66721;SDS011;53633;49.932;10.884;2022-09-17T04:54:28;6.22;;;2.30;;
66721;SDS011;53633;49.932;10.884;2022-09-17T04:56:55;6.65;;;2.15;;
66721;SDS011;53633;49.932;10.884;2022-09-17T04:59:22;8.43;;;1.97;;
66721;SDS011;53633;49.932;10.884;2022-09-17T05:01:48;7.22;;;2.20;;
66721;SDS011;53633;49.932;10.884;2022-09-17T05:04:16;8.48;;;2.08;;
66721;SDS011;53633;49.932;10.884;2022-09-17T05:06:43;9.75;;;2.20;;
66721;SDS011;53633;49.932;10.884;2022-09-17T05:09:10;7.72;;;2.33;;
66721;SDS011;53633;49.932;10.884;2022-09-17T05:11:36;5.10;;;1.73;;
66721;SDS011;53633;49.932;10.884;2022-09-17T05:14:03;6.65;;;2.17;;
66721;SDS011;53633;49.932;10.884;2022-09-17T05:16:29;7.38;;;2.00;;
66721;SDS011;53633;49.932;10.884;2022-09-17T05:18:56;7.10;;;1.80;;
66721;SDS011;53633;49.932;10.884;2022-09-17T05:21:24;5.22;;;1.58;;
66721;SDS011;53633;49.932;10.884;2022-09-17T05:23:51;6.57;;;1.73;;
66721;SDS011;53633;49.932;10.884;2022-09-17T05:26:18;6.10;;;1.50;;
66721;SDS011;53633;49.932;10.884;2022-09-17T05:28:44;6.18;;;1.27;;
66721;SDS011;53633;49.932;10.884;2022-09-17T05:31:11;4.03;;;1.20;;
66721;SDS011;53633;49.932;10.884;2022-09-17T05:33:37;5.20;;;0.90;;
66721;SDS011;53633;49.932;10.884;2022-09-17T05:36:04;6.93;;;1.07;;
66721;SDS011;53633;49.932;10.884;2022-09-17T05:38:32;3.95;;;0.70;;
66721;SDS011;53633;49.932;10.884;2022-09-17T05:41:02;3.95;;;0.88;;
66721;SDS011;53633;49.932;10.884;2022-09-17T05:43:29;5.10;;;0.70;;
66721;SDS011;53633;49.932;10.884;2022-09-17T05:45:59;2.25;;;0.52;;
66721;SDS011;53633;49.932;10.884;2022-09-17T05:48:26;2.80;;;0.70;;
66721;SDS011;53633;49.932;10.884;2022-09-17T05:50:53;3.35;;;0.70;;
66721;SDS011;53633;49.932;10.884;2022-09-17T05:53:19;3.83;;;0.60;;
66721;SDS011;53633;49.932;10.884;2022-09-17T05:55:47;4.45;;;0.57;;
66721;SDS011;53633;49.932;10.884;2022-09-17T05:58:14;3.33;;;0.77;;
66721;SDS011;53633;49.932;10.884;2022-09-17T06:00:43;4.83;;;0.90;;
66721;SDS011;53633;49.932;10.884;2022-09-17T06:03:11;3.28;;;0.50;;
66721;SDS011;53633;49.932;10.884;2022-09-17T06:05:39;5.47;;;0.77;;
66721;SDS011;53633;49.932;10.884;2022-09-17T06:08:05;4.30;;;0.90;;
66721;SDS011;53633;49.932;10.884;2022-09-17T06:10:34;4.38;;;0.75;;
66721;SDS011;53633;49.932;10.884;2022-09-17T06:13:02;14.97;;;0.97;;
66721;SDS011;53633;49.932;10.884;2022-09-17T06:15:29;3.63;;;0.55;;
66721;SDS011;53633;49.932;10.884;2022-09-17T06:17:56;5.20;;;0.98;;
66721;SDS011;53633;49.932;10.884;2022-09-17T06:20:22;6.63;;;1.20;;
66721;SDS011;53633;49.932;10.884;2022-09-17T06:22:54;5.55;;;0.80;;
66721;SDS011;53633;49.932;10.884;2022-09-17T06:25:21;4.53;;;0.70;;
66721;SDS011;53633;49.932;10.884;2022-09-17T06:27:47;3.60;;;1.17;;
66721;SDS011;53633;49.932;10.884;2022-09-17T06:30:15;3.80;;;1.00;;
66721;SDS011;53633;49.932;10.884;2022-09-17T06:32:42;5.80;;;1.52;;
66721;SDS011;53633;49.932;10.884;2022-09-17T06:35:08;6.20;;;1.10;;
66721;SDS011;53633;49.932;10.884;2022-09-17T06:37:35;3.93;;;1.00;;
66721;SDS011;53633;49.932;10.884;2022-09-17T06:40:02;4.25;;;1.20;;
66721;SDS011;53633;49.932;10.884;2022-09-17T06:42:28;4.47;;;1.23;;
66721;SDS011;53633;49.932;10.884;2022-09-17T06:44:55;5.07;;;1.00;;
66721;SDS011;53633;49.932;10.884;2022-09-17T06:47:26;4.47;;;1.35;;
66721;SDS011;53633;49.932;10.884;2022-09-17T06:49:52;4.60;;;1.10;;
66721;SDS011;53633;49.932;10.884;2022-09-17T06:52:19;3.85;;;1.27;;
66721;SDS011;53633;49.932;10.884;2022-09-17T06:54:45;5.13;;;1.45;;
66721;SDS011;53633;49.932;10.884;2022-09-17T06:57:12;5.03;;;1.50;;
66721;SDS011;53633;49.932;10.884;2022-09-17T06:59:39;6.90;;;1.58;;
66721;SDS011;53633;49.932;10.884;2022-09-17T07:02:05;6.77;;;1.43;;
66721;SDS011;53633;49.932;10.884;2022-09-17T07:04:35;5.82;;;1.70;;
66721;SDS011;53633;49.932;10.884;2022-09-17T07:07:01;12.85;;;1.90;;
66721;SDS011;53633;49.932;10.884;2022-09-17T07:09:29;4.70;;;1.55;;
66721;SDS011;53633;49.932;10.884;2022-09-17T07:11:55;5.65;;;1.50;;
66721;SDS011;53633;49.932;10.884;2022-09-17T07:14:22;5.63;;;1.77;;
66721;SDS011;53633;49.932;10.884;2022-09-17T07:16:51;7.32;;;1.70;;
66721;SDS011;53633;49.932;10.884;2022-09-17T07:19:17;7.32;;;2.03;;
66721;SDS011;53633;49.932;10.884;2022-09-17T07:21:46;4.90;;;1.63;;
66721;SDS011;53633;49.932;10.884;2022-09-17T07:24:13;6.93;;;1.77;;
66721;SDS011;53633;49.932;10.884;2022-09-17T07:26:39;7.87;;;1.90;;
66721;SDS011;53633;49.932;10.884;2022-09-17T07:29:06;6.68;;;1.83;;
66721;SDS011;53633;49.932;10.884;2022-09-17T07:31:33;8.63;;;2.20;;
66721;SDS011;53633;49.932;10.884;2022-09-17T07:33:59;7.70;;;1.90;;
66721;SDS011;53633;49.932;10.884;2022-09-17T07:36:26;7.90;;;2.17;;
66721;SDS011;53633;49.932;10.884;2022-09-17T07:38:54;7.67;;;1.70;;
66721;SDS011;53633;49.932;10.884;2022-09-17T07:41:20;7.43;;;1.92;;
66721;SDS011;53633;49.932;10.884;2022-09-17T07:43:47;9.32;;;1.65;;
66721;SDS011;53633;49.932;10.884;2022-09-17T07:46:14;8.35;;;2.25;;
66721;SDS011;53633;49.932;10.884;2022-09-17T07:48:42;8.48;;;2.42;;
66721;SDS011;53633;49.932;10.884;2022-09-17T07:51:13;9.57;;;2.27;;
66721;SDS011;53633;49.932;10.884;2022-09-17T07:53:40;8.98;;;2.25;;
66721;SDS011;53633;49.932;10.884;2022-09-17T07:56:08;6.90;;;2.03;;
66721;SDS011;53633;49.932;10.884;2022-09-17T07:58:37;7.28;;;1.60;;
66721;SDS011;53633;49.932;10.884;2022-09-17T08:01:04;8.65;;;2.33;;
66721;SDS011;53633;49.932;10.884;2022-09-17T08:03:32;8.13;;;1.97;;
66721;SDS011;53633;49.932;10.884;2022-09-17T08:06:00;7.47;;;2.10;;
66721;SDS011;53633;49.932;10.884;2022-09-17T08:08:27;9.63;;;1.95;;
66721;SDS011;53633;49.932;10.884;2022-09-17T08:10:54;7.32;;;1.83;;
66721;SDS011;53633;49.932;10.884;2022-09-17T08:13:26;9.95;;;2.50;;
66721;SDS011;53633;49.932;10.884;2022-09-17T08:15:56;11.13;;;2.63;;
66721;SDS011;53633;49.932;10.884;2022-09-17T08:18:23;7.75;;;2.17;;
66721;SDS011;53633;49.932;10.884;2022-09-17T08:20:50;10.55;;;2.25;;
66721;SDS011;53633;49.932;10.884;2022-09-17T08:23:16;8.57;;;1.77;;
66721;SDS011;53633;49.932;10.884;2022-09-17T08:25:43;5.95;;;1.75;;
66721;SDS011;53633;49.932;10.884;2022-09-17T08:28:09;5.17;;;1.60;;
66721;SDS011;53633;49.932;10.884;2022-09-17T08:30:37;10.18;;;2.15;;
66721;SDS011;53633;49.932;10.884;2022-09-17T08:33:04;13.27;;;2.38;;
66721;SDS011;53633;49.932;10.884;2022-09-17T08:35:30;8.88;;;2.00;;
66721;SDS011;53633;49.932;10.884;2022-09-17T08:37:57;8.85;;;1.90;;
66721;SDS011;53633;49.932;10.884;2022-09-17T08:40:24;7.27;;;1.73;;
66721;SDS011;53633;49.932;10.884;2022-09-17T08:42:51;6.97;;;1.52;;
66721;SDS011;53633;49.932;10.884;2022-09-17T08:45:20;9.45;;;2.10;;
66721;SDS011;53633;49.932;10.884;2022-09-17T08:47:48;6.82;;;1.95;;
66721;SDS011;53633;49.932;10.884;2022-09-17T08:50:16;9.70;;;1.83;;
66721;SDS011;53633;49.932;10.884;2022-09-17T08:53:02;7.37;;;1.77;;
66721;SDS011;53633;49.932;10.884;2022-09-17T08:55:39;6.57;;;1.75;;
66721;SDS011;53633;49.932;10.884;2022-09-17T08:58:26;11.95;;;3.50;;
66721;SDS011;53633;49.932;10.884;2022-09-17T09:01:07;7.65;;;1.70;;
66721;SDS011;53633;49.932;10.884;2022-09-17T09:03:58;10.70;;;2.75;;
66721;SDS011;53633;49.932;10.884;2022-09-17T09:06:45;5.23;;;1.30;;
66721;SDS011;53633;49.932;10.884;2022-09-17T09:09:16;7.32;;;1.70;;
66721;SDS011;53633;49.932;10.884;2022-09-17T09:11:45;10.00;;;2.20;;
66721;SDS011;53633;49.932;10.884;2022-09-17T09:14:16;6.45;;;1.77;;
66721;SDS011;53633;49.932;10.884;2022-09-17T09:16:46;9.75;;;2.45;;
66721;SDS011;53633;49.932;10.884;2022-09-17T09:19:18;8.53;;;2.60;;
66721;SDS011;53633;49.932;10.884;2022-09-17T09:22:00;9.32;;;2.25;;
66721;SDS011;53633;49.932;10.884;2022-09-17T09:24:30;8.23;;;2.22;;
66721;SDS011;53633;49.932;10.884;2022-09-17T09:27:08;8.43;;;2.25;;
66721;SDS011;53633;49.932;10.884;2022-09-17T09:29:41;8.13;;;1.92;;
66721;SDS011;53633;49.932;10.884;2022-09-17T09:32:18;8.87;;;2.07;;
66721;SDS011;53633;49.932;10.884;2022-09-17T09:34:54;10.70;;;1.88;;
66721;SDS011;53633;49.932;10.884;2022-09-17T09:37:29;10.38;;;2.20;;
66721;SDS011;53633;49.932;10.884;2022-09-17T09:39:59;11.10;;;2.22;;
66721;SDS011;53633;49.932;10.884;2022-09-17T09:42:33;8.38;;;2.13;;
66721;SDS011;53633;49.932;10.884;2022-09-17T09:45:05;7.00;;;1.83;;
66721;SDS011;53633;49.932;10.884;2022-09-17T09:47:41;9.05;;;1.65;;
66721;SDS011;53633;49.932;10.884;2022-09-17T09:50:32;12.95;;;2.35;;
66721;SDS011;53633;49.932;10.884;2022-09-17T09:53:28;9.57;;;2.10;;
66721;SDS011;53633;49.932;10.884;2022-09-17T09:56:04;12.00;;;1.83;;
66721;SDS011;53633;49.932;10.884;2022-09-17T09:58:41;7.83;;;1.70;;
66721;SDS011;53633;49.932;10.884;2022-09-17T10:01:10;7.43;;;1.58;;
66721;SDS011;53633;49.932;10.884;2022-09-17T10:03:40;5.75;;;1.40;;
66721;SDS011;53633;49.932;10.884;2022-09-17T10:06:09;8.57;;;1.42;;
66721;SDS011;53633;49.932;10.884;2022-09-17T10:08:37;9.93;;;1.75;;
66721;SDS011;53633;49.932;10.884;2022-09-17T10:11:06;7.93;;;1.50;;
66721;SDS011;53633;49.932;10.884;2022-09-17T10:13:45;7.70;;;1.70;;
66721;SDS011;53633;49.932;10.884;2022-09-17T10:16:16;8.25;;;2.03;;
66721;SDS011;53633;49.932;10.884;2022-09-17T10:18:44;8.82;;;1.42;;
66721;SDS011;53633;49.932;10.884;2022-09-17T10:21:19;9.70;;;2.28;;
66721;SDS011;53633;49.932;10.884;2022-09-17T10:23:47;7.90;;;2.37;;
66721;SDS011;53633;49.932;10.884;2022-09-17T10:26:21;7.20;;;1.60;;
66721;SDS011;53633;49.932;10.884;2022-09-17T10:28:50;9.75;;;1.58;;
66721;SDS011;53633;49.932;10.884;2022-09-17T10:31:19;8.23;;;1.65;;
66721;SDS011;53633;49.932;10.884;2022-09-17T10:33:51;10.38;;;2.00;;
66721;SDS011;53633;49.932;10.884;2022-09-17T10:36:41;7.33;;;2.03;;
66721;SDS011;53633;49.932;10.884;2022-09-17T10:39:21;7.90;;;1.92;;
66721;SDS011;53633;49.932;10.884;2022-09-17T10:41:55;7.85;;;2.47;;
66721;SDS011;53633;49.932;10.884;2022-09-17T10:44:23;8.48;;;1.65;;
66721;SDS011;53633;49.932;10.884;2022-09-17T10:46:50;8.70;;;1.50;;
66721;SDS011;53633;49.932;10.884;2022-09-17T10:49:20;8.37;;;1.87;;
66721;SDS011;53633;49.932;10.884;2022-09-17T10:52:04;9.32;;;1.50;;
66721;SDS011;53633;49.932;10.884;2022-09-17T10:54:41;9.15;;;1.48;;
66721;SDS011;53633;49.932;10.884;2022-09-17T10:57:18;10.10;;;1.50;;
66721;SDS011;53633;49.932;10.884;2022-09-17T10:59:58;5.88;;;1.38;;
66721;SDS011;53633;49.932;10.884;2022-09-17T11:05:37;6.32;;;1.17;;
66721;SDS011;53633;49.932;10.884;2022-09-17T11:08:14;7.68;;;1.35;;
66721;SDS011;53633;49.932;10.884;2022-09-17T11:10:46;4.38;;;1.20;;
66721;SDS011;53633;49.932;10.884;2022-09-17T11:13:20;6.63;;;1.52;;
66721;SDS011;53633;49.932;10.884;2022-09-17T11:15:58;6.47;;;1.20;;
66721;SDS011;53633;49.932;10.884;2022-09-17T11:18:38;5.68;;;1.55;;
66721;SDS011;53633;49.932;10.884;2022-09-17T11:21:25;11.05;;;1.40;;
66721;SDS011;53633;49.932;10.884;2022-09-17T11:24:04;8.05;;;1.48;;
66721;SDS011;53633;49.932;10.884;2022-09-17T11:26:47;5.85;;;1.33;;
66721;SDS011;53633;49.932;10.884;2022-09-17T11:29:28;5.73;;;1.70;;
66721;SDS011;53633;49.932;10.884;2022-09-17T11:32:06;6.95;;;0.88;;
66721;SDS011;53633;49.932;10.884;2022-09-17T11:34:41;6.32;;;1.13;;
66721;SDS011;53633;49.932;10.884;2022-09-17T11:37:15;7.72;;;1.15;;
66721;SDS011;53633;49.932;10.884;2022-09-17T11:39:50;7.40;;;0.93;;
66721;SDS011;53633;49.932;10.884;2022-09-17T11:42:21;5.73;;;1.73;;
66721;SDS011;53633;49.932;10.884;2022-09-17T11:44:52;4.03;;;0.98;;
66721;SDS011;53633;49.932;10.884;2022-09-17T11:47:22;5.65;;;1.13;;
66721;SDS011;53633;49.932;10.884;2022-09-17T11:49:55;4.18;;;0.80;;
66721;SDS011;53633;49.932;10.884;2022-09-17T11:52:27;7.65;;;1.30;;
66721;SDS011;53633;49.932;10.884;2022-09-17T11:55:02;6.93;;;1.20;;
66721;SDS011;53633;49.932;10.884;2022-09-17T11:57:36;3.38;;;1.10;;
66721;SDS011;53633;49.932;10.884;2022-09-17T12:00:11;6.70;;;1.00;;
66721;SDS011;53633;49.932;10.884;2022-09-17T12:02:41;5.25;;;1.40;;
66721;SDS011;53633;49.932;10.884;2022-09-17T12:05:16;5.38;;;1.20;;
66721;SDS011;53633;49.932;10.884;2022-09-17T12:07:47;5.67;;;1.03;;
66721;SDS011;53633;49.932;10.884;2022-09-17T12:10:23;5.45;;;1.17;;
66721;SDS011;53633;49.932;10.884;2022-09-17T12:13:06;4.70;;;1.15;;
66721;SDS011;53633;49.932;10.884;2022-09-17T12:15:44;9.23;;;1.20;;
66721;SDS011;53633;49.932;10.884;2022-09-17T12:18:21;7.57;;;1.42;;
66721;SDS011;53633;49.932;10.884;2022-09-17T12:20:59;5.87;;;1.40;;
66721;SDS011;53633;49.932;10.884;2022-09-17T12:23:30;6.43;;;1.40;;
66721;SDS011;53633;49.932;10.884;2022-09-17T12:26:04;4.80;;;1.08;;
66721;SDS011;53633;49.932;10.884;2022-09-17T12:28:40;8.68;;;1.63;;
66721;SDS011;53633;49.932;10.884;2022-09-17T12:31:16;5.95;;;1.08;;
66721;SDS011;53633;49.932;10.884;2022-09-17T12:33:51;5.17;;;0.80;;
66721;SDS011;53633;49.932;10.884;2022-09-17T12:36:26;5.28;;;1.52;;
66721;SDS011;53633;49.932;10.884;2022-09-17T12:39:05;3.63;;;1.05;;
66721;SDS011;53633;49.932;10.884;2022-09-17T12:42:00;4.07;;;1.23;;
66721;SDS011;53633;49.932;10.884;2022-09-17T12:44:40;7.63;;;1.40;;
66721;SDS011;53633;49.932;10.884;2022-09-17T12:47:21;4.63;;;1.80;;
66721;SDS011;53633;49.932;10.884;2022-09-17T12:50:05;6.18;;;1.70;;
66721;SDS011;53633;49.932;10.884;2022-09-17T12:52:44;6.55;;;0.90;;
66721;SDS011;53633;49.932;10.884;2022-09-17T12:55:23;6.05;;;1.60;;
66721;SDS011;53633;49.932;10.884;2022-09-17T12:58:06;11.30;;;4.63;;
66721;SDS011;53633;49.932;10.884;2022-09-17T13:00:43;11.30;;;4.30;;
66721;SDS011;53633;49.932;10.884;2022-09-17T13:03:15;7.75;;;2.70;;
66721;SDS011;53633;49.932;10.884;2022-09-17T13:05:55;7.07;;;2.63;;
66721;SDS011;53633;49.932;10.884;2022-09-17T13:08:42;7.00;;;1.63;;
66721;SDS011;53633;49.932;10.884;2022-09-17T13:11:48;4.45;;;1.25;;
66721;SDS011;53633;49.932;10.884;2022-09-17T13:14:31;8.33;;;1.37;;
66721;SDS011;53633;49.932;10.884;2022-09-17T13:17:16;9.68;;;3.38;;
66721;SDS011;53633;49.932;10.884;2022-09-17T13:19:49;30.85;;;13.75;;
66721;SDS011;53633;49.932;10.884;2022-09-17T13:22:26;20.98;;;8.65;;
66721;SDS011;53633;49.932;10.884;2022-09-17T13:25:01;9.82;;;3.15;;
66721;SDS011;53633;49.932;10.884;2022-09-17T13:27:30;8.47;;;1.97;;
66721;SDS011;53633;49.932;10.884;2022-09-17T13:30:02;5.90;;;1.58;;
66721;SDS011;53633;49.932;10.884;2022-09-17T13:32:42;5.07;;;1.48;;
66721;SDS011;53633;49.932;10.884;2022-09-17T13:38:14;13.15;;;5.30;;
66721;SDS011;53633;49.932;10.884;2022-09-17T13:40:48;11.17;;;4.97;;
66721;SDS011;53633;49.932;10.884;2022-09-17T13:43:16;7.20;;;2.65;;
66721;SDS011;53633;49.932;10.884;2022-09-17T13:46:06;6.53;;;1.88;;
66721;SDS011;53633;49.932;10.884;2022-09-17T13:48:34;10.25;;;3.33;;
66721;SDS011;53633;49.932;10.884;2022-09-17T13:54:08;7.17;;;1.80;;
66721;SDS011;53633;49.932;10.884;2022-09-17T13:56:36;7.35;;;1.95;;
66721;SDS011;53633;49.932;10.884;2022-09-17T13:59:04;6.72;;;1.80;;
66721;SDS011;53633;49.932;10.884;2022-09-17T14:04:33;7.57;;;1.75;;
66721;SDS011;53633;49.932;10.884;2022-09-17T14:10:01;7.80;;;1.80;;
66721;SDS011;53633;49.932;10.884;2022-09-17T14:18:58;10.07;;;3.20;;
66721;SDS011;53633;49.932;10.884;2022-09-17T14:21:31;8.40;;;3.50;;
66721;SDS011;53633;49.932;10.884;2022-09-17T14:23:59;10.27;;;3.35;;
66721;SDS011;53633;49.932;10.884;2022-09-17T14:26:35;9.68;;;2.50;;
66721;SDS011;53633;49.932;10.884;2022-09-17T14:29:12;11.30;;;3.45;;
66721;SDS011;53633;49.932;10.884;2022-09-17T14:31:50;11.95;;;6.63;;
66721;SDS011;53633;49.932;10.884;2022-09-17T14:34:19;12.40;;;5.63;;
66721;SDS011;53633;49.932;10.884;2022-09-17T14:36:47;8.35;;;3.65;;
66721;SDS011;53633;49.932;10.884;2022-09-17T14:39:16;10.65;;;3.80;;
66721;SDS011;53633;49.932;10.884;2022-09-17T14:41:46;6.28;;;1.60;;
66721;SDS011;53633;49.932;10.884;2022-09-17T14:44:17;5.35;;;1.60;;
66721;SDS011;53633;49.932;10.884;2022-09-17T14:46:47;5.00;;;1.10;;
66721;SDS011;53633;49.932;10.884;2022-09-17T14:49:21;4.10;;;0.73;;
66721;SDS011;53633;49.932;10.884;2022-09-17T14:51:49;4.97;;;1.83;;
66721;SDS011;53633;49.932;10.884;2022-09-17T14:54:20;3.63;;;0.98;;
66721;SDS011;53633;49.932;10.884;2022-09-17T14:56:50;8.23;;;0.93;;
66721;SDS011;53633;49.932;10.884;2022-09-17T14:59:20;6.73;;;0.73;;
66721;SDS011;53633;49.932;10.884;2022-09-17T15:01:50;3.75;;;0.70;;
66721;SDS011;53633;49.932;10.884;2022-09-17T15:04:21;6.53;;;1.20;;
66721;SDS011;53633;49.932;10.884;2022-09-17T15:06:50;3.53;;;0.60;;
66721;SDS011;53633;49.932;10.884;2022-09-17T15:09:17;3.28;;;0.70;;
66721;SDS011;53633;49.932;10.884;2022-09-17T15:11:47;5.97;;;0.70;;
66721;SDS011;53633;49.932;10.884;2022-09-17T15:14:15;4.63;;;1.10;;
66721;SDS011;53633;49.932;10.884;2022-09-17T15:16:45;8.57;;;1.33;;
66721;SDS011;53633;49.932;10.884;2022-09-17T15:19:16;8.65;;;1.92;;
66721;SDS011;53633;49.932;10.884;2022-09-17T15:21:48;5.55;;;1.38;;
66721;SDS011;53633;49.932;10.884;2022-09-17T15:24:19;6.77;;;1.40;;
66721;SDS011;53633;49.932;10.884;2022-09-17T15:27:05;5.85;;;1.40;;